TimeCST,TemperatureF,Dew PointF,Humidity,Sea Level PressureIn,VisibilityMPH,Wind Direction,Wind SpeedMPH,Gust SpeedMPH,PrecipitationIn,Events,Conditions,WindDirDegrees,DateUTC
12:51 AM,43.0,30.9,62,29.51,10.0,WSW,27.6,35.7,N/A,,Overcast,240,2013-02-11 06:51:00
1:51 AM,41.0,32.0,70,29.52,10.0,WSW,13.8,20.7,N/A,,Overcast,240,2013-02-11 07:51:00
2:12 AM,39.2,32.0,75,29.52,10.0,WSW,25.3,40.3,N/A,,Overcast,240,2013-02-11 08:12:00
2:51 AM,37.9,30.0,73,29.54,10.0,WSW,31.1,-,N/A,,Overcast,250,2013-02-11 08:51:00
3:40 AM,35.6,26.6,70,29.54,10.0,WSW,36.8,43.7,0.00,,Overcast,240,2013-02-11 09:40:00
3:51 AM,36.0,27.0,70,29.55,10.0,WSW,33.4,48.3,0.00,,Overcast,240,2013-02-11 09:51:00
4:51 AM,35.1,25.0,67,29.57,10.0,WSW,35.7,49.5,N/A,,Overcast,250,2013-02-11 10:51:00
5:51 AM,34.0,25.0,70,29.59,10.0,West,28.8,38.0,N/A,,Overcast,260,2013-02-11 11:51:00
6:29 AM,33.8,24.8,70,29.59,10.0,WSW,29.9,41.4,N/A,,Overcast,240,2013-02-11 12:29:00
6:51 AM,34.0,25.0,70,29.61,10.0,WSW,33.4,43.7,N/A,,Overcast,240,2013-02-11 12:51:00
7:51 AM,34.0,25.0,70,29.63,10.0,West,32.2,43.7,N/A,,Overcast,260,2013-02-11 13:51:00
8:51 AM,34.0,25.0,70,29.65,10.0,WSW,21.9,33.4,N/A,,Overcast,250,2013-02-11 14:51:00
9:04 AM,33.8,26.6,75,29.65,10.0,West,20.7,31.1,N/A,,Overcast,260,2013-02-11 15:04:00
9:51 AM,34.0,25.0,70,29.69,10.0,WSW,27.6,42.6,0.00,,Overcast,250,2013-02-11 15:51:00
10:51 AM,34.0,25.0,70,29.71,10.0,West,25.3,34.5,0.00,,Overcast,260,2013-02-11 16:51:00
11:51 AM,33.1,25.0,72,29.73,10.0,West,25.3,40.3,N/A,,Overcast,260,2013-02-11 17:51:00
12:51 PM,33.1,24.1,70,29.77,10.0,West,28.8,42.6,N/A,,Overcast,270,2013-02-11 18:51:00
1:51 PM,32.0,23.0,69,29.79,10.0,West,20.7,40.3,N/A,,Overcast,260,2013-02-11 19:51:00
2:36 PM,32.0,23.0,69,29.79,10.0,West,25.3,39.1,N/A,,Overcast,270,2013-02-11 20:36:00
2:51 PM,32.0,23.0,69,29.82,10.0,West,17.3,31.1,N/A,,Overcast,260,2013-02-11 20:51:00
3:26 PM,32.0,21.2,64,29.82,10.0,West,19.6,39.1,N/A,,Overcast,270,2013-02-11 21:26:00
3:51 PM,32.0,21.9,66,29.86,10.0,West,21.9,43.7,N/A,,Overcast,280,2013-02-11 21:51:00
4:51 PM,32.0,22.1,67,29.89,10.0,WNW,27.6,36.8,N/A,,Overcast,290,2013-02-11 22:51:00
5:51 PM,30.9,21.0,67,29.93,10.0,West,24.2,33.4,N/A,,Overcast,270,2013-02-11 23:51:00
6:51 PM,30.9,21.0,67,29.96,10.0,West,18.4,26.5,N/A,,Overcast,280,2013-02-12 00:51:00
7:18 PM,30.2,19.4,64,29.95,10.0,West,21.9,31.1,N/A,,Overcast,280,2013-02-12 01:18:00
7:48 PM,30.2,19.4,64,29.95,10.0,West,19.6,26.5,N/A,,Overcast,280,2013-02-12 01:48:00
7:51 PM,30.0,19.9,66,29.97,10.0,West,17.3,26.5,N/A,,Overcast,280,2013-02-12 01:51:00
8:51 PM,30.0,19.9,66,29.98,10.0,WNW,15.0,25.3,N/A,,Overcast,290,2013-02-12 02:51:00
9:51 PM,28.9,19.9,69,29.99,10.0,West,16.1,25.3,N/A,,Overcast,280,2013-02-12 03:51:00
10:51 PM,28.9,19.9,69,30.01,10.0,West,17.3,23.0,N/A,,Overcast,280,2013-02-12 04:51:00
11:51 PM,28.9,19.9,69,30.03,10.0,WNW,15.0,-,N/A,,Overcast,290,2013-02-12 05:51:00